sensor_id;sensor_type;location;lat;lon;timestamp;temperature;humidity
78731;SHT31;68055;51.978;5.658;2023-03-15T00:00:34;6.3;68.4
78731;SHT31;68055;51.978;5.658;2023-03-15T00:03:04;6.3;68.3
78731;SHT31;68055;51.978;5.658;2023-03-15T00:05:34;6.3;68.0
78731;SHT31;68055;51.978;5.658;2023-03-15T00:08:04;6.3;68.0
78731;SHT31;68055;51.978;5.658;2023-03-15T00:10:33;6.3;68.6
78731;SHT31;68055;51.978;5.658;2023-03-15T00:13:05;6.3;68.4
78731;SHT31;68055;51.978;5.658;2023-03-15T00:15:35;6.3;68.1
78731;SHT31;68055;51.978;5.658;2023-03-15T00:18:05;6.3;68.7
78731;SHT31;68055;51.978;5.658;2023-03-15T00:20:36;6.3;68.7
78731;SHT31;68055;51.978;5.658;2023-03-15T00:23:06;6.3;68.6
78731;SHT31;68055;51.978;5.658;2023-03-15T00:25:36;6.3;68.4
78731;SHT31;68055;51.978;5.658;2023-03-15T00:28:08;6.3;69.0
78731;SHT31;68055;51.978;5.658;2023-03-15T00:30:37;6.3;68.5
78731;SHT31;68055;51.978;5.658;2023-03-15T00:33:08;6.3;68.9
78731;SHT31;68055;51.978;5.658;2023-03-15T00:35:41;6.3;68.9
78731;SHT31;68055;51.978;5.658;2023-03-15T00:38:14;6.3;68.8
78731;SHT31;68055;51.978;5.658;2023-03-15T00:40:43;6.3;69.0
78731;SHT31;68055;51.978;5.658;2023-03-15T00:43:13;6.3;69.2
78731;SHT31;68055;51.978;5.658;2023-03-15T00:45:44;6.3;69.0
78731;SHT31;68055;51.978;5.658;2023-03-15T00:48:15;6.4;69.2
78731;SHT31;68055;51.978;5.658;2023-03-15T00:50:47;6.4;69.0
78731;SHT31;68055;51.978;5.658;2023-03-15T00:53:16;6.4;69.2
78731;SHT31;68055;51.978;5.658;2023-03-15T00:55:48;6.4;69.0
78731;SHT31;68055;51.978;5.658;2023-03-15T00:58:18;6.4;69.1
78731;SHT31;68055;51.978;5.658;2023-03-15T01:00:48;6.3;69.0
78731;SHT31;68055;51.978;5.658;2023-03-15T01:03:18;6.3;68.2
78731;SHT31;68055;51.978;5.658;2023-03-15T01:05:47;6.3;68.3
78731;SHT31;68055;51.978;5.658;2023-03-15T01:08:17;6.3;68.7
78731;SHT31;68055;51.978;5.658;2023-03-15T01:10:46;6.3;68.7
78731;SHT31;68055;51.978;5.658;2023-03-15T01:13:16;6.3;68.3
78731;SHT31;68055;51.978;5.658;2023-03-15T01:15:46;6.2;68.4
78731;SHT31;68055;51.978;5.658;2023-03-15T01:18:18;6.2;68.7
78731;SHT31;68055;51.978;5.658;2023-03-15T01:20:49;6.2;68.3
78731;SHT31;68055;51.978;5.658;2023-03-15T01:23:21;6.2;68.8
78731;SHT31;68055;51.978;5.658;2023-03-15T01:25:50;6.2;69.4
78731;SHT31;68055;51.978;5.658;2023-03-15T01:28:20;6.2;69.5
78731;SHT31;68055;51.978;5.658;2023-03-15T01:30:50;6.1;69.0
78731;SHT31;68055;51.978;5.658;2023-03-15T01:33:21;6.1;69.1
78731;SHT31;68055;51.978;5.658;2023-03-15T01:36:00;6.1;69.2
78731;SHT31;68055;51.978;5.658;2023-03-15T01:38:29;6.1;69.4
78731;SHT31;68055;51.978;5.658;2023-03-15T01:41:00;6.1;69.0
78731;SHT31;68055;51.978;5.658;2023-03-15T01:43:30;6.1;68.6
78731;SHT31;68055;51.978;5.658;2023-03-15T01:46:05;6.1;68.8
78731;SHT31;68055;51.978;5.658;2023-03-15T01:48:39;6.1;69.2
78731;SHT31;68055;51.978;5.658;2023-03-15T01:51:15;6.1;68.4
78731;SHT31;68055;51.978;5.658;2023-03-15T01:53:53;6.1;68.9
78731;SHT31;68055;51.978;5.658;2023-03-15T01:56:27;6.1;69.1
78731;SHT31;68055;51.978;5.658;2023-03-15T01:58:59;6.1;69.2
78731;SHT31;68055;51.978;5.658;2023-03-15T02:01:31;6.1;69.4
78731;SHT31;68055;51.978;5.658;2023-03-15T02:04:04;6.1;69.5
78731;SHT31;68055;51.978;5.658;2023-03-15T02:06:36;6.1;69.5
78731;SHT31;68055;51.978;5.658;2023-03-15T02:09:08;6.1;69.3
78731;SHT31;68055;51.978;5.658;2023-03-15T02:11:41;6.1;69.1
78731;SHT31;68055;51.978;5.658;2023-03-15T02:14:12;6.1;69.1
78731;SHT31;68055;51.978;5.658;2023-03-15T02:16:42;6.1;68.7
78731;SHT31;68055;51.978;5.658;2023-03-15T02:19:24;6.1;68.8
78731;SHT31;68055;51.978;5.658;2023-03-15T02:22:02;6.1;68.8
78731;SHT31;68055;51.978;5.658;2023-03-15T02:24:44;6.1;69.0
78731;SHT31;68055;51.978;5.658;2023-03-15T02:27:21;6.1;68.7
78731;SHT31;68055;51.978;5.658;2023-03-15T02:29:53;6.1;68.4
78731;SHT31;68055;51.978;5.658;2023-03-15T02:32:24;6.0;68.4
78731;SHT31;68055;51.978;5.658;2023-03-15T02:34:54;6.0;68.8
78731;SHT31;68055;51.978;5.658;2023-03-15T02:37:24;6.0;68.7
78731;SHT31;68055;51.978;5.658;2023-03-15T02:39:55;6.0;68.4
78731;SHT31;68055;51.978;5.658;2023-03-15T02:42:25;6.0;68.6
78731;SHT31;68055;51.978;5.658;2023-03-15T02:44:58;6.0;68.8
78731;SHT31;68055;51.978;5.658;2023-03-15T02:47:32;5.9;68.7
78731;SHT31;68055;51.978;5.658;2023-03-15T02:50:02;5.9;68.8
78731;SHT31;68055;51.978;5.658;2023-03-15T02:52:31;5.9;68.9
78731;SHT31;68055;51.978;5.658;2023-03-15T02:55:01;5.9;69.0
78731;SHT31;68055;51.978;5.658;2023-03-15T02:57:31;5.9;69.0
78731;SHT31;68055;51.978;5.658;2023-03-15T03:00:01;5.9;69.1
78731;SHT31;68055;51.978;5.658;2023-03-15T03:02:39;5.9;69.3
78731;SHT31;68055;51.978;5.658;2023-03-15T03:05:10;5.9;68.8
78731;SHT31;68055;51.978;5.658;2023-03-15T03:07:40;5.8;68.8
78731;SHT31;68055;51.978;5.658;2023-03-15T03:10:13;5.8;68.6
78731;SHT31;68055;51.978;5.658;2023-03-15T03:12:44;5.8;68.8
78731;SHT31;68055;51.978;5.658;2023-03-15T03:15:13;5.8;69.0
78731;SHT31;68055;51.978;5.658;2023-03-15T03:17:43;5.8;69.0
78731;SHT31;68055;51.978;5.658;2023-03-15T03:20:14;5.8;68.7
78731;SHT31;68055;51.978;5.658;2023-03-15T03:22:43;5.8;68.9
78731;SHT31;68055;51.978;5.658;2023-03-15T03:25:13;5.8;68.7
78731;SHT31;68055;51.978;5.658;2023-03-15T03:27:43;5.7;68.8
78731;SHT31;68055;51.978;5.658;2023-03-15T03:30:13;5.7;68.7
78731;SHT31;68055;51.978;5.658;2023-03-15T03:32:43;5.7;68.9
78731;SHT31;68055;51.978;5.658;2023-03-15T03:35:14;5.7;68.7
78731;SHT31;68055;51.978;5.658;2023-03-15T03:37:44;5.7;68.6
78731;SHT31;68055;51.978;5.658;2023-03-15T03:40:14;5.7;68.5
78731;SHT31;68055;51.978;5.658;2023-03-15T03:42:44;5.7;68.7
78731;SHT31;68055;51.978;5.658;2023-03-15T03:45:13;5.7;68.6
78731;SHT31;68055;51.978;5.658;2023-03-15T03:47:44;5.7;68.6
78731;SHT31;68055;51.978;5.658;2023-03-15T03:50:14;5.7;68.4
78731;SHT31;68055;51.978;5.658;2023-03-15T03:52:44;5.7;68.5
78731;SHT31;68055;51.978;5.658;2023-03-15T03:55:14;5.6;68.7
78731;SHT31;68055;51.978;5.658;2023-03-15T03:57:43;5.6;68.7
78731;SHT31;68055;51.978;5.658;2023-03-15T04:00:13;5.6;68.7
78731;SHT31;68055;51.978;5.658;2023-03-15T04:02:43;5.6;68.9
78731;SHT31;68055;51.978;5.658;2023-03-15T04:05:13;5.6;68.3
78731;SHT31;68055;51.978;5.658;2023-03-15T04:07:44;5.6;68.6
78731;SHT31;68055;51.978;5.658;2023-03-15T04:10:21;5.6;68.6
78731;SHT31;68055;51.978;5.658;2023-03-15T04:12:55;5.6;68.1
78731;SHT31;68055;51.978;5.658;2023-03-15T04:15:25;5.6;68.5
78731;SHT31;68055;51.978;5.658;2023-03-15T04:17:55;5.6;68.5
78731;SHT31;68055;51.978;5.658;2023-03-15T04:20:26;5.6;68.2
78731;SHT31;68055;51.978;5.658;2023-03-15T04:22:55;5.6;68.3
78731;SHT31;68055;51.978;5.658;2023-03-15T04:25:26;5.6;68.7
78731;SHT31;68055;51.978;5.658;2023-03-15T04:27:55;5.6;68.0
78731;SHT31;68055;51.978;5.658;2023-03-15T04:30:29;5.6;67.9
78731;SHT31;68055;51.978;5.658;2023-03-15T04:32:59;5.6;68.3
78731;SHT31;68055;51.978;5.658;2023-03-15T04:35:31;5.6;68.6
78731;SHT31;68055;51.978;5.658;2023-03-15T04:38:02;5.6;67.6
78731;SHT31;68055;51.978;5.658;2023-03-15T04:40:33;5.6;67.9
78731;SHT31;68055;51.978;5.658;2023-03-15T04:43:04;5.6;68.2
78731;SHT31;68055;51.978;5.658;2023-03-15T04:45:34;5.6;68.0
78731;SHT31;68055;51.978;5.658;2023-03-15T04:48:04;5.6;68.3
78731;SHT31;68055;51.978;5.658;2023-03-15T04:50:35;5.6;68.0
78731;SHT31;68055;51.978;5.658;2023-03-15T04:53:07;5.6;67.4
78731;SHT31;68055;51.978;5.658;2023-03-15T04:55:38;5.6;67.7
78731;SHT31;68055;51.978;5.658;2023-03-15T04:58:07;5.6;67.4
78731;SHT31;68055;51.978;5.658;2023-03-15T05:00:37;5.6;67.5
78731;SHT31;68055;51.978;5.658;2023-03-15T05:03:07;5.6;67.4
78731;SHT31;68055;51.978;5.658;2023-03-15T05:05:36;5.6;68.0
78731;SHT31;68055;51.978;5.658;2023-03-15T05:08:06;5.6;67.4
78731;SHT31;68055;51.978;5.658;2023-03-15T05:10:35;5.6;67.1
78731;SHT31;68055;51.978;5.658;2023-03-15T05:13:05;5.6;67.8
78731;SHT31;68055;51.978;5.658;2023-03-15T05:15:35;5.6;67.4
78731;SHT31;68055;51.978;5.658;2023-03-15T05:18:05;5.6;67.9
78731;SHT31;68055;51.978;5.658;2023-03-15T05:20:34;5.6;67.6
78731;SHT31;68055;51.978;5.658;2023-03-15T05:23:04;5.6;67.4
78731;SHT31;68055;51.978;5.658;2023-03-15T05:25:33;5.5;67.4
78731;SHT31;68055;51.978;5.658;2023-03-15T05:28:04;5.5;66.9
78731;SHT31;68055;51.978;5.658;2023-03-15T05:30:33;5.5;66.6
78731;SHT31;68055;51.978;5.658;2023-03-15T05:33:05;5.5;67.2
78731;SHT31;68055;51.978;5.658;2023-03-15T05:35:34;5.5;66.7
78731;SHT31;68055;51.978;5.658;2023-03-15T05:38:04;5.5;67.2
78731;SHT31;68055;51.978;5.658;2023-03-15T05:40:34;5.5;66.6
78731;SHT31;68055;51.978;5.658;2023-03-15T05:43:03;5.5;67.3
78731;SHT31;68055;51.978;5.658;2023-03-15T05:45:33;5.5;67.3
78731;SHT31;68055;51.978;5.658;2023-03-15T05:48:03;5.4;66.5
78731;SHT31;68055;51.978;5.658;2023-03-15T05:50:32;5.4;67.2
78731;SHT31;68055;51.978;5.658;2023-03-15T05:53:02;5.4;67.3
78731;SHT31;68055;51.978;5.658;2023-03-15T05:55:31;5.4;66.7
78731;SHT31;68055;51.978;5.658;2023-03-15T05:58:03;5.4;67.1
78731;SHT31;68055;51.978;5.658;2023-03-15T06:00:33;5.4;66.9
78731;SHT31;68055;51.978;5.658;2023-03-15T06:03:02;5.4;66.8
78731;SHT31;68055;51.978;5.658;2023-03-15T06:05:32;5.4;67.3
78731;SHT31;68055;51.978;5.658;2023-03-15T06:08:02;5.4;67.1
78731;SHT31;68055;51.978;5.658;2023-03-15T06:10:32;5.4;66.6
78731;SHT31;68055;51.978;5.658;2023-03-15T06:13:02;5.4;67.2
78731;SHT31;68055;51.978;5.658;2023-03-15T06:15:32;5.4;67.1
78731;SHT31;68055;51.978;5.658;2023-03-15T06:18:01;5.4;67.1
78731;SHT31;68055;51.978;5.658;2023-03-15T06:20:31;5.3;67.3
78731;SHT31;68055;51.978;5.658;2023-03-15T06:23:01;5.3;67.0
78731;SHT31;68055;51.978;5.658;2023-03-15T06:25:30;5.3;67.2
78731;SHT31;68055;51.978;5.658;2023-03-15T06:28:00;5.3;67.8
78731;SHT31;68055;51.978;5.658;2023-03-15T06:30:29;5.3;67.4
78731;SHT31;68055;51.978;5.658;2023-03-15T06:32:59;5.3;67.8
78731;SHT31;68055;51.978;5.658;2023-03-15T06:35:29;5.3;68.0
78731;SHT31;68055;51.978;5.658;2023-03-15T06:37:59;5.3;68.2
78731;SHT31;68055;51.978;5.658;2023-03-15T06:40:29;5.4;67.8
78731;SHT31;68055;51.978;5.658;2023-03-15T06:42:59;5.4;68.7
78731;SHT31;68055;51.978;5.658;2023-03-15T06:45:32;5.4;68.3
78731;SHT31;68055;51.978;5.658;2023-03-15T06:48:02;5.4;68.6
78731;SHT31;68055;51.978;5.658;2023-03-15T06:50:32;5.5;69.1
78731;SHT31;68055;51.978;5.658;2023-03-15T06:53:01;5.5;69.7
78731;SHT31;68055;51.978;5.658;2023-03-15T06:55:31;5.6;69.8
78731;SHT31;68055;51.978;5.658;2023-03-15T06:58:00;5.7;69.3
78731;SHT31;68055;51.978;5.658;2023-03-15T07:00:30;5.7;69.3
78731;SHT31;68055;51.978;5.658;2023-03-15T07:03:01;5.8;69.3
78731;SHT31;68055;51.978;5.658;2023-03-15T07:05:31;5.9;68.9
78731;SHT31;68055;51.978;5.658;2023-03-15T07:08:00;6.0;68.8
78731;SHT31;68055;51.978;5.658;2023-03-15T07:10:30;6.1;69.4
78731;SHT31;68055;51.978;5.658;2023-03-15T07:13:00;6.2;68.3
78731;SHT31;68055;51.978;5.658;2023-03-15T07:15:31;6.3;68.5
78731;SHT31;68055;51.978;5.658;2023-03-15T07:18:02;6.4;67.9
78731;SHT31;68055;51.978;5.658;2023-03-15T07:20:32;6.5;67.3
78731;SHT31;68055;51.978;5.658;2023-03-15T07:23:01;6.6;67.2
78731;SHT31;68055;51.978;5.658;2023-03-15T07:25:33;6.7;67.4
78731;SHT31;68055;51.978;5.658;2023-03-15T07:28:03;6.8;67.8
78731;SHT31;68055;51.978;5.658;2023-03-15T07:30:34;6.9;67.3
78731;SHT31;68055;51.978;5.658;2023-03-15T07:33:04;7.0;66.7
78731;SHT31;68055;51.978;5.658;2023-03-15T07:35:34;7.1;66.6
78731;SHT31;68055;51.978;5.658;2023-03-15T07:38:03;7.2;66.0
78731;SHT31;68055;51.978;5.658;2023-03-15T07:40:33;7.3;66.5
78731;SHT31;68055;51.978;5.658;2023-03-15T07:43:02;7.4;64.8
78731;SHT31;68055;51.978;5.658;2023-03-15T07:45:32;7.5;65.5
78731;SHT31;68055;51.978;5.658;2023-03-15T07:48:02;7.6;65.6
78731;SHT31;68055;51.978;5.658;2023-03-15T07:50:32;7.7;63.9
78731;SHT31;68055;51.978;5.658;2023-03-15T07:53:04;7.7;65.6
78731;SHT31;68055;51.978;5.658;2023-03-15T07:55:34;7.8;65.0
78731;SHT31;68055;51.978;5.658;2023-03-15T07:58:04;7.9;64.7
78731;SHT31;68055;51.978;5.658;2023-03-15T08:00:34;8.0;65.0
78731;SHT31;68055;51.978;5.658;2023-03-15T08:03:04;8.1;65.1
78731;SHT31;68055;51.978;5.658;2023-03-15T08:05:35;8.2;63.7
78731;SHT31;68055;51.978;5.658;2023-03-15T08:08:05;8.2;63.6
78731;SHT31;68055;51.978;5.658;2023-03-15T08:10:35;8.3;64.0
78731;SHT31;68055;51.978;5.658;2023-03-15T08:13:07;8.4;63.8
78731;SHT31;68055;51.978;5.658;2023-03-15T08:15:38;8.5;62.8
78731;SHT31;68055;51.978;5.658;2023-03-15T08:18:08;8.6;62.9
78731;SHT31;68055;51.978;5.658;2023-03-15T08:20:37;8.8;63.4
78731;SHT31;68055;51.978;5.658;2023-03-15T08:23:07;8.9;63.4
78731;SHT31;68055;51.978;5.658;2023-03-15T08:25:42;9.0;63.8
78731;SHT31;68055;51.978;5.658;2023-03-15T08:28:12;9.2;61.1
78731;SHT31;68055;51.978;5.658;2023-03-15T08:30:42;9.3;61.5
78731;SHT31;68055;51.978;5.658;2023-03-15T08:33:12;9.5;62.4
78731;SHT31;68055;51.978;5.658;2023-03-15T08:35:42;9.6;61.6
78731;SHT31;68055;51.978;5.658;2023-03-15T08:38:14;9.8;60.8
78731;SHT31;68055;51.978;5.658;2023-03-15T08:40:43;10.0;59.2
78731;SHT31;68055;51.978;5.658;2023-03-15T08:43:13;10.1;57.7
78731;SHT31;68055;51.978;5.658;2023-03-15T08:45:43;10.3;60.9
78731;SHT31;68055;51.978;5.658;2023-03-15T08:48:12;10.5;58.4
78731;SHT31;68055;51.978;5.658;2023-03-15T08:50:42;10.7;57.8
78731;SHT31;68055;51.978;5.658;2023-03-15T08:53:12;11.0;57.3
78731;SHT31;68055;51.978;5.658;2023-03-15T08:55:41;11.2;52.9
78731;SHT31;68055;51.978;5.658;2023-03-15T08:58:11;11.4;55.9
78731;SHT31;68055;51.978;5.658;2023-03-15T09:00:41;11.7;52.2
78731;SHT31;68055;51.978;5.658;2023-03-15T09:03:10;11.9;52.8
78731;SHT31;68055;51.978;5.658;2023-03-15T09:05:42;12.1;52.1
78731;SHT31;68055;51.978;5.658;2023-03-15T09:08:11;12.3;52.7
78731;SHT31;68055;51.978;5.658;2023-03-15T09:10:45;12.6;50.7
78731;SHT31;68055;51.978;5.658;2023-03-15T09:13:15;12.8;52.7
78731;SHT31;68055;51.978;5.658;2023-03-15T09:15:44;13.0;51.7
78731;SHT31;68055;51.978;5.658;2023-03-15T09:18:14;13.2;47.4
78731;SHT31;68055;51.978;5.658;2023-03-15T09:20:44;13.4;48.2
78731;SHT31;68055;51.978;5.658;2023-03-15T09:23:14;13.6;46.1
78731;SHT31;68055;51.978;5.658;2023-03-15T09:25:43;13.7;47.7
78731;SHT31;68055;51.978;5.658;2023-03-15T09:28:13;13.9;45.0
78731;SHT31;68055;51.978;5.658;2023-03-15T09:30:43;14.0;44.3
78731;SHT31;68055;51.978;5.658;2023-03-15T09:33:12;14.1;43.5
78731;SHT31;68055;51.978;5.658;2023-03-15T09:35:42;14.2;44.2
78731;SHT31;68055;51.978;5.658;2023-03-15T09:38:11;14.2;42.5
78731;SHT31;68055;51.978;5.658;2023-03-15T09:40:42;14.1;42.9
78731;SHT31;68055;51.978;5.658;2023-03-15T09:43:34;13.9;42.9
78731;SHT31;68055;51.978;5.658;2023-03-15T09:46:19;13.7;44.8
78731;SHT31;68055;51.978;5.658;2023-03-15T09:48:57;13.4;44.6
78731;SHT31;68055;51.978;5.658;2023-03-15T09:51:35;13.2;44.0
78731;SHT31;68055;51.978;5.658;2023-03-15T09:54:11;13.0;46.6
78731;SHT31;68055;51.978;5.658;2023-03-15T09:56:52;12.8;45.6
78731;SHT31;68055;51.978;5.658;2023-03-15T09:59:29;12.7;47.5
78731;SHT31;68055;51.978;5.658;2023-03-15T10:02:03;12.5;45.0
78731;SHT31;68055;51.978;5.658;2023-03-15T10:04:37;12.4;44.9
78731;SHT31;68055;51.978;5.658;2023-03-15T10:07:13;12.3;46.3
78731;SHT31;68055;51.978;5.658;2023-03-15T10:09:44;12.2;46.1
78731;SHT31;68055;51.978;5.658;2023-03-15T10:12:17;12.1;47.1
78731;SHT31;68055;51.978;5.658;2023-03-15T10:15:46;12.0;44.7
78731;SHT31;68055;51.978;5.658;2023-03-15T10:18:36;11.9;45.4
78731;SHT31;68055;51.978;5.658;2023-03-15T10:21:16;11.9;44.5
78731;SHT31;68055;51.978;5.658;2023-03-15T10:23:52;11.8;46.1
78731;SHT31;68055;51.978;5.658;2023-03-15T10:26:26;11.8;45.2
78731;SHT31;68055;51.978;5.658;2023-03-15T10:28:56;11.7;44.0
78731;SHT31;68055;51.978;5.658;2023-03-15T10:31:32;11.7;43.9
78731;SHT31;68055;51.978;5.658;2023-03-15T10:34:07;11.7;45.5
78731;SHT31;68055;51.978;5.658;2023-03-15T10:36:45;11.6;45.4
78731;SHT31;68055;51.978;5.658;2023-03-15T10:39:16;11.6;47.2
78731;SHT31;68055;51.978;5.658;2023-03-15T10:41:47;11.6;47.7
78731;SHT31;68055;51.978;5.658;2023-03-15T10:44:19;11.6;46.2
78731;SHT31;68055;51.978;5.658;2023-03-15T10:47:04;11.6;47.0
78731;SHT31;68055;51.978;5.658;2023-03-15T10:49:38;11.6;47.3
78731;SHT31;68055;51.978;5.658;2023-03-15T10:52:27;11.5;45.0
78731;SHT31;68055;51.978;5.658;2023-03-15T10:54:59;11.5;47.8
78731;SHT31;68055;51.978;5.658;2023-03-15T10:57:33;11.5;47.2
78731;SHT31;68055;51.978;5.658;2023-03-15T11:00:17;11.5;45.0
78731;SHT31;68055;51.978;5.658;2023-03-15T11:02:49;11.5;45.8
78731;SHT31;68055;51.978;5.658;2023-03-15T11:05:19;11.6;44.5
78731;SHT31;68055;51.978;5.658;2023-03-15T11:07:57;11.6;46.5
78731;SHT31;68055;51.978;5.658;2023-03-15T11:10:34;11.6;43.7
78731;SHT31;68055;51.978;5.658;2023-03-15T11:13:10;11.6;44.8
78731;SHT31;68055;51.978;5.658;2023-03-15T11:15:48;11.6;43.4
78731;SHT31;68055;51.978;5.658;2023-03-15T11:18:28;11.5;45.2
78731;SHT31;68055;51.978;5.658;2023-03-15T11:21:04;11.5;42.0
78731;SHT31;68055;51.978;5.658;2023-03-15T11:23:38;11.5;41.3
78731;SHT31;68055;51.978;5.658;2023-03-15T11:26:16;11.5;42.0
78731;SHT31;68055;51.978;5.658;2023-03-15T11:28:49;11.5;42.0
78731;SHT31;68055;51.978;5.658;2023-03-15T11:31:22;11.5;42.2
78731;SHT31;68055;51.978;5.658;2023-03-15T11:33:57;11.5;43.0
78731;SHT31;68055;51.978;5.658;2023-03-15T11:36:32;11.5;42.5
78731;SHT31;68055;51.978;5.658;2023-03-15T11:39:03;11.5;42.7
78731;SHT31;68055;51.978;5.658;2023-03-15T11:41:36;11.5;42.4
78731;SHT31;68055;51.978;5.658;2023-03-15T11:44:12;11.5;41.2
78731;SHT31;68055;51.978;5.658;2023-03-15T11:46:48;11.5;41.1
78731;SHT31;68055;51.978;5.658;2023-03-15T11:49:28;11.5;40.5
78731;SHT31;68055;51.978;5.658;2023-03-15T11:51:59;11.5;41.3
78731;SHT31;68055;51.978;5.658;2023-03-15T11:54:30;11.5;41.3
78731;SHT31;68055;51.978;5.658;2023-03-15T11:57:03;11.5;41.0
78731;SHT31;68055;51.978;5.658;2023-03-15T11:59:36;11.5;42.0
78731;SHT31;68055;51.978;5.658;2023-03-15T12:02:35;11.4;40.3
78731;SHT31;68055;51.978;5.658;2023-03-15T12:05:43;11.4;40.7
78731;SHT31;68055;51.978;5.658;2023-03-15T12:08:22;11.4;43.6
78731;SHT31;68055;51.978;5.658;2023-03-15T12:10:53;11.4;39.6
78731;SHT31;68055;51.978;5.658;2023-03-15T12:13:25;11.4;39.4
78731;SHT31;68055;51.978;5.658;2023-03-15T12:15:56;11.4;41.7
78731;SHT31;68055;51.978;5.658;2023-03-15T12:18:30;11.4;43.3
78731;SHT31;68055;51.978;5.658;2023-03-15T12:21:13;11.4;41.1
78731;SHT31;68055;51.978;5.658;2023-03-15T12:23:47;11.4;40.4
78731;SHT31;68055;51.978;5.658;2023-03-15T12:26:24;11.4;40.9
78731;SHT31;68055;51.978;5.658;2023-03-15T12:29:06;11.4;40.5
78731;SHT31;68055;51.978;5.658;2023-03-15T12:31:50;11.4;40.7
78731;SHT31;68055;51.978;5.658;2023-03-15T12:34:27;11.4;40.7
78731;SHT31;68055;51.978;5.658;2023-03-15T12:37:02;11.4;40.7
78731;SHT31;68055;51.978;5.658;2023-03-15T12:39:39;11.4;40.0
78731;SHT31;68055;51.978;5.658;2023-03-15T12:42:18;11.4;41.1
78731;SHT31;68055;51.978;5.658;2023-03-15T12:44:48;11.4;42.0
78731;SHT31;68055;51.978;5.658;2023-03-15T12:47:20;11.4;41.2
78731;SHT31;68055;51.978;5.658;2023-03-15T12:49:49;11.4;40.6
78731;SHT31;68055;51.978;5.658;2023-03-15T12:52:41;11.4;41.0
78731;SHT31;68055;51.978;5.658;2023-03-15T12:55:17;11.5;40.2
78731;SHT31;68055;51.978;5.658;2023-03-15T12:57:49;11.5;39.6
78731;SHT31;68055;51.978;5.658;2023-03-15T13:00:24;11.5;39.5
78731;SHT31;68055;51.978;5.658;2023-03-15T13:03:03;11.6;38.8
78731;SHT31;68055;51.978;5.658;2023-03-15T13:05:44;11.6;38.5
78731;SHT31;68055;51.978;5.658;2023-03-15T13:08:20;11.6;37.9
78731;SHT31;68055;51.978;5.658;2023-03-15T13:11:03;11.6;38.7
78731;SHT31;68055;51.978;5.658;2023-03-15T13:15:04;11.6;38.9
78731;SHT31;68055;51.978;5.658;2023-03-15T13:17:45;11.6;38.0
78731;SHT31;68055;51.978;5.658;2023-03-15T13:20:32;11.6;39.5
78731;SHT31;68055;51.978;5.658;2023-03-15T13:23:14;11.6;39.3
78731;SHT31;68055;51.978;5.658;2023-03-15T13:25:59;11.6;38.6
78731;SHT31;68055;51.978;5.658;2023-03-15T13:28:34;11.6;38.7
78731;SHT31;68055;51.978;5.658;2023-03-15T13:31:18;11.6;39.5
78731;SHT31;68055;51.978;5.658;2023-03-15T13:33:51;11.6;38.2
78731;SHT31;68055;51.978;5.658;2023-03-15T13:36:25;11.6;37.4
78731;SHT31;68055;51.978;5.658;2023-03-15T13:38:56;11.6;37.6
78731;SHT31;68055;51.978;5.658;2023-03-15T13:41:27;11.6;37.5
78731;SHT31;68055;51.978;5.658;2023-03-15T13:44:00;11.6;39.9
78731;SHT31;68055;51.978;5.658;2023-03-15T13:46:31;11.7;38.1
78731;SHT31;68055;51.978;5.658;2023-03-15T13:49:02;11.7;37.4
78731;SHT31;68055;51.978;5.658;2023-03-15T13:51:34;11.7;38.7
78731;SHT31;68055;51.978;5.658;2023-03-15T13:54:10;11.7;37.4
78731;SHT31;68055;51.978;5.658;2023-03-15T13:56:55;11.7;38.4
78731;SHT31;68055;51.978;5.658;2023-03-15T13:59:30;11.7;35.1
78731;SHT31;68055;51.978;5.658;2023-03-15T14:02:03;11.7;37.3
78731;SHT31;68055;51.978;5.658;2023-03-15T14:04:36;11.7;38.1
78731;SHT31;68055;51.978;5.658;2023-03-15T14:07:22;11.7;34.5
78731;SHT31;68055;51.978;5.658;2023-03-15T14:10:08;11.7;36.9
78731;SHT31;68055;51.978;5.658;2023-03-15T14:12:38;11.7;37.3
78731;SHT31;68055;51.978;5.658;2023-03-15T14:15:19;11.7;36.2
78731;SHT31;68055;51.978;5.658;2023-03-15T14:17:54;11.7;34.9
78731;SHT31;68055;51.978;5.658;2023-03-15T14:20:28;11.7;39.2
78731;SHT31;68055;51.978;5.658;2023-03-15T14:23:02;11.7;35.5
78731;SHT31;68055;51.978;5.658;2023-03-15T14:25:35;11.7;35.5
78731;SHT31;68055;51.978;5.658;2023-03-15T14:28:05;11.7;36.6
78731;SHT31;68055;51.978;5.658;2023-03-15T14:30:41;11.7;36.0
78731;SHT31;68055;51.978;5.658;2023-03-15T14:33:24;11.8;36.6
78731;SHT31;68055;51.978;5.658;2023-03-15T14:35:57;11.8;34.9
78731;SHT31;68055;51.978;5.658;2023-03-15T14:38:31;11.8;36.4
78731;SHT31;68055;51.978;5.658;2023-03-15T14:41:22;11.8;37.8
78731;SHT31;68055;51.978;5.658;2023-03-15T14:43:53;11.8;35.8
78731;SHT31;68055;51.978;5.658;2023-03-15T14:46:23;11.8;36.8
78731;SHT31;68055;51.978;5.658;2023-03-15T14:48:55;11.8;37.0
78731;SHT31;68055;51.978;5.658;2023-03-15T14:51:27;11.8;36.7
78731;SHT31;68055;51.978;5.658;2023-03-15T14:53:58;11.8;35.9
78731;SHT31;68055;51.978;5.658;2023-03-15T14:56:28;11.9;36.0
78731;SHT31;68055;51.978;5.658;2023-03-15T14:58:58;11.9;37.4
78731;SHT31;68055;51.978;5.658;2023-03-15T15:01:30;11.9;38.0
78731;SHT31;68055;51.978;5.658;2023-03-15T15:04:01;11.9;36.9
78731;SHT31;68055;51.978;5.658;2023-03-15T15:06:31;11.9;36.6
78731;SHT31;68055;51.978;5.658;2023-03-15T15:09:04;11.9;37.2
78731;SHT31;68055;51.978;5.658;2023-03-15T15:11:34;11.9;36.0
78731;SHT31;68055;51.978;5.658;2023-03-15T15:14:09;11.9;35.0
78731;SHT31;68055;51.978;5.658;2023-03-15T15:16:41;11.9;36.2
78731;SHT31;68055;51.978;5.658;2023-03-15T15:19:11;11.9;35.6
78731;SHT31;68055;51.978;5.658;2023-03-15T15:21:41;11.9;35.7
78731;SHT31;68055;51.978;5.658;2023-03-15T15:24:14;11.9;35.3
78731;SHT31;68055;51.978;5.658;2023-03-15T15:26:48;11.9;36.8
78731;SHT31;68055;51.978;5.658;2023-03-15T15:29:17;11.8;36.9
78731;SHT31;68055;51.978;5.658;2023-03-15T15:31:47;11.8;37.7
78731;SHT31;68055;51.978;5.658;2023-03-15T15:34:19;11.8;39.4
78731;SHT31;68055;51.978;5.658;2023-03-15T15:36:48;11.8;37.0
78731;SHT31;68055;51.978;5.658;2023-03-15T15:39:20;11.8;37.9
78731;SHT31;68055;51.978;5.658;2023-03-15T15:41:53;11.8;37.6
78731;SHT31;68055;51.978;5.658;2023-03-15T15:44:23;11.8;38.3
78731;SHT31;68055;51.978;5.658;2023-03-15T15:46:53;11.8;37.1
78731;SHT31;68055;51.978;5.658;2023-03-15T15:49:23;11.8;38.2
78731;SHT31;68055;51.978;5.658;2023-03-15T15:51:53;11.8;37.5
78731;SHT31;68055;51.978;5.658;2023-03-15T15:54:26;11.8;37.3
78731;SHT31;68055;51.978;5.658;2023-03-15T15:56:58;11.8;37.1
78731;SHT31;68055;51.978;5.658;2023-03-15T15:59:29;11.8;37.2
78731;SHT31;68055;51.978;5.658;2023-03-15T16:01:59;11.8;37.3
78731;SHT31;68055;51.978;5.658;2023-03-15T16:04:29;11.8;36.8
78731;SHT31;68055;51.978;5.658;2023-03-15T16:07:01;11.8;37.7
78731;SHT31;68055;51.978;5.658;2023-03-15T16:09:33;11.8;35.8
78731;SHT31;68055;51.978;5.658;2023-03-15T16:12:12;11.8;37.1
78731;SHT31;68055;51.978;5.658;2023-03-15T16:14:43;11.8;38.4
78731;SHT31;68055;51.978;5.658;2023-03-15T16:17:17;11.8;37.7
78731;SHT31;68055;51.978;5.658;2023-03-15T16:19:48;11.8;37.7
78731;SHT31;68055;51.978;5.658;2023-03-15T16:22:20;11.8;40.0
78731;SHT31;68055;51.978;5.658;2023-03-15T16:24:54;11.8;38.6
78731;SHT31;68055;51.978;5.658;2023-03-15T16:27:28;11.7;38.4
78731;SHT31;68055;51.978;5.658;2023-03-15T16:29:58;11.7;38.0
78731;SHT31;68055;51.978;5.658;2023-03-15T16:32:29;11.7;37.5
78731;SHT31;68055;51.978;5.658;2023-03-15T16:35:01;11.7;36.8
78731;SHT31;68055;51.978;5.658;2023-03-15T16:37:32;11.7;39.1
78731;SHT31;68055;51.978;5.658;2023-03-15T16:40:01;11.7;37.5
78731;SHT31;68055;51.978;5.658;2023-03-15T16:42:36;11.7;38.1
78731;SHT31;68055;51.978;5.658;2023-03-15T16:45:09;11.7;38.6